Time;durP1;ratioP1;P1;durP2;ratioP2;P2;SDS_P1;SDS_P2;PMS_P1;PMS_P2;Temp;Humidity;BMP_temperature;BMP_pressure;BME280_temperature;BME280_humidity;BME280_pressure;Samples;Min_cycle;Max_cycle;Signal;HPM_P1;HPM_P2
2023/09/08 00:02:06;;;;;;;;;23.00;20.00;;;;;20.40;100.00;99566.16;6278715;27;97079;-67
2023/09/08 00:05:10;;;;;;;;;22.75;20.75;;;;;20.41;100.00;99565.06;6253832;27;96743;-66
2023/09/08 00:08:13;;;;;;;;;25.00;22.00;;;;;20.42;100.00;99565.88;6254606;27;99121;-66
2023/09/08 00:11:18;;;;;;;;;22.40;21.00;;;;;20.41;100.00;99575.19;6264514;27;96581;-66
2023/09/08 00:14:21;;;;;;;;;23.25;21.75;;;;;20.37;100.00;99572.16;6267869;27;96650;-65
2023/09/08 00:17:24;;;;;;;;;24.00;22.00;;;;;20.33;100.00;99568.28;6265516;27;96575;-66
2023/09/08 00:20:28;;;;;;;;;23.20;20.60;;;;;20.36;100.00;99569.69;6255013;27;96803;-66
2023/09/08 00:23:31;;;;;;;;;22.00;19.00;;;;;20.33;100.00;99575.72;6257126;27;97831;-66
2023/09/08 00:26:35;;;;;;;;;20.60;19.40;;;;;20.33;100.00;99574.59;6265569;27;96848;-66
2023/09/08 00:29:39;;;;;;;;;29.00;25.00;;;;;20.33;100.00;99573.78;6248009;27;96494;-66
2023/09/08 00:32:42;;;;;;;;;25.40;23.00;;;;;20.33;100.00;99574.59;6256644;27;97879;-66
2023/09/08 00:35:46;;;;;;;;;22.00;21.00;;;;;20.38;100.00;99575.75;6250301;27;96700;-66
2023/09/08 00:38:49;;;;;;;;;22.60;21.60;;;;;20.39;100.00;99560.94;6243822;27;98955;-66
2023/09/08 00:41:53;;;;;;;;;23.60;21.40;;;;;20.36;100.00;99570.53;6261346;27;97713;-66
2023/09/08 00:44:56;;;;;;;;;21.60;20.00;;;;;20.35;100.00;99568.88;6260384;27;96713;-66
2023/09/08 00:48:00;;;;;;;;;24.80;23.00;;;;;20.37;100.00;99553.00;6243406;27;98447;-66
2023/09/08 00:51:07;;;;;;;;;19.75;19.75;;;;;20.39;100.00;99552.72;6268951;27;96733;-66
2023/09/08 00:54:11;;;;;;;;;24.80;23.60;;;;;20.38;100.00;99548.34;6262876;27;96358;-66
2023/09/08 00:57:16;;;;;;;;;23.00;22.00;;;;;20.35;100.00;99554.34;6263194;27;96477;-66
2023/09/08 01:00:20;;;;;;;;;22.00;20.75;;;;;20.28;100.00;99538.16;6264313;27;96326;-66
2023/09/08 01:03:23;;;;;;;;;23.60;21.60;;;;;20.28;100.00;99554.59;6240793;27;97352;-66
2023/09/08 01:06:28;;;;;;;;;21.00;20.00;;;;;20.26;100.00;99554.03;6266691;27;96630;-66
2023/09/08 01:09:31;;;;;;;;;23.00;21.00;;;;;20.22;100.00;99555.66;6264620;27;96301;-66
2023/09/08 01:12:36;;;;;;;;;23.00;21.00;;;;;20.20;100.00;99552.34;6246368;27;97658;-66
2023/09/08 01:15:39;;;;;;;;;23.80;21.80;;;;;20.16;100.00;99556.72;6237913;27;99216;-66
2023/09/08 01:18:42;;;;;;;;;26.80;25.40;;;;;20.15;100.00;99558.63;6246608;27;97323;-66
2023/09/08 01:22:12;;;;;;;;;21.00;21.00;;;;;20.16;100.00;99551.25;6246281;27;97135;-66
2023/09/08 01:25:22;;;;;;;;;20.80;19.00;;;;;20.16;100.00;99548.50;6263824;27;97040;-66
2023/09/08 01:28:26;;;;;;;;;23.00;21.00;;;;;20.12;100.00;99559.19;6249554;27;96646;-66
2023/09/08 01:31:29;;;;;;;;;22.80;20.80;;;;;20.09;100.00;99559.69;6255098;27;96430;-66
2023/09/08 01:34:36;;;;;;;;;23.00;20.00;;;;;20.08;100.00;99551.78;6228597;27;96669;-66
2023/09/08 01:37:42;;;;;;;;;22.50;22.00;;;;;20.09;100.00;99550.66;6234378;27;96712;-66
2023/09/08 01:40:47;;;;;;;;;18.20;18.20;;;;;20.06;100.00;99549.28;6277266;27;96457;-66
2023/09/08 01:43:50;;;;;;;;;22.75;20.50;;;;;20.03;100.00;99549.84;6289213;27;96844;-66
2023/09/08 01:46:56;;;;;;;;;25.00;22.00;;;;;20.01;100.00;99546.53;6282882;27;96736;-66
2023/09/08 01:50:00;;;;;;;;;22.40;21.60;;;;;19.99;100.00;99548.69;6269198;27;96614;-65
2023/09/08 01:53:03;;;;;;;;;24.50;20.00;;;;;20.00;100.00;99555.81;6270311;27;96639;-66
2023/09/08 01:56:08;;;;;;;;;23.75;21.75;;;;;19.94;100.00;99543.19;6251829;27;98394;-65
2023/09/08 01:59:11;;;;;;;;;21.00;20.00;;;;;19.93;100.00;99549.78;6264406;27;96518;-66
2023/09/08 02:02:15;;;;;;;;;20.00;18.00;;;;;19.92;100.00;99539.91;6253202;27;96260;-66
2023/09/08 02:05:18;;;;;;;;;22.40;21.40;;;;;19.84;100.00;99534.97;6228502;27;96850;-66
2023/09/08 02:08:21;;;;;;;;;20.20;19.60;;;;;19.78;100.00;99536.84;6262464;27;96534;-66
2023/09/08 02:11:26;;;;;;;;;24.00;21.00;;;;;19.73;100.00;99541.47;6265684;27;96502;-66
2023/09/08 02:14:29;;;;;;;;;20.50;20.50;;;;;19.73;100.00;99544.22;6264647;27;96992;-66
2023/09/08 02:17:32;;;;;;;;;22.00;21.00;;;;;19.72;100.00;99543.38;6244938;27;97042;-66
2023/09/08 02:20:36;;;;;;;;;24.80;22.80;;;;;19.68;100.00;99549.66;6269421;27;99505;-66
2023/09/08 02:23:39;;;;;;;;;24.50;23.75;;;;;19.62;100.00;99547.97;6271752;27;97026;-66
2023/09/08 02:26:44;;;;;;;;;23.60;22.00;;;;;19.57;100.00;99547.94;6295640;27;96581;-66
2023/09/08 02:29:48;;;;;;;;;22.00;19.75;;;;;19.53;100.00;99544.09;6295790;27;97509;-66
2023/09/08 02:32:51;;;;;;;;;22.00;21.00;;;;;19.53;100.00;99544.91;6263890;27;96444;-66
2023/09/08 02:35:55;;;;;;;;;22.40;21.60;;;;;19.50;100.00;99542.69;6273460;27;97381;-66
2023/09/08 02:38:58;;;;;;;;;22.60;20.00;;;;;19.46;100.00;99544.31;6242910;27;96282;-66
2023/09/08 02:42:03;;;;;;;;;24.00;22.00;;;;;19.39;100.00;99528.13;6242993;27;97028;-66
2023/09/08 02:45:07;;;;;;;;;25.40;21.60;;;;;19.34;100.00;99530.81;6261821;27;96429;-66
2023/09/08 02:48:11;;;;;;;;;27.00;22.60;;;;;19.29;100.00;99527.22;6260272;27;96908;-66
2023/09/08 02:51:14;;;;;;;;;25.60;23.00;;;;;19.24;100.00;99530.75;6242789;27;98439;-66
2023/09/08 02:54:17;;;;;;;;;24.40;22.40;;;;;19.25;100.00;99529.66;6243389;27;96973;-66
2023/09/08 02:57:23;;;;;;;;;22.80;21.80;;;;;19.24;100.00;99529.91;6244153;27;96519;-66
2023/09/08 03:00:26;;;;;;;;;24.75;22.75;;;;;19.19;100.00;99530.69;6262007;27;96606;-66
2023/09/08 03:03:30;;;;;;;;;25.40;24.00;;;;;19.13;100.00;99526.28;6266752;27;97181;-66
2023/09/08 03:06:35;;;;;;;;;25.00;24.00;;;;;19.08;100.00;99523.50;6268940;27;97081;-66
2023/09/08 03:09:39;;;;;;;;;26.00;24.00;;;;;19.06;100.00;99522.13;6251313;27;96974;-66
2023/09/08 03:12:44;;;;;;;;;27.00;23.00;;;;;18.98;100.00;99526.16;6268904;27;97947;-66
2023/09/08 03:15:47;;;;;;;;;26.00;24.00;;;;;18.90;100.00;99519.28;6268583;27;99314;-65
2023/09/08 03:18:50;;;;;;;;;32.00;28.00;;;;;18.76;100.00;99515.31;6269466;27;96584;-66
2023/09/08 03:21:53;;;;;;;;;28.50;25.00;;;;;18.67;100.00;99513.31;6262775;27;97128;-66
2023/09/08 03:24:56;;;;;;;;;27.60;25.00;;;;;18.66;100.00;99504.31;6262320;27;96586;-66
2023/09/08 03:28:01;;;;;;;;;28.00;25.00;;;;;18.65;100.00;99499.91;6261330;27;96922;-66
2023/09/08 03:31:05;;;;;;;;;28.40;25.00;;;;;18.65;100.00;99501.81;6235403;27;96842;-66
2023/09/08 03:34:10;;;;;;;;;26.00;25.50;;;;;18.63;100.00;99502.06;6257176;27;96431;-65
2023/09/08 03:37:15;;;;;;;;;29.50;26.75;;;;;18.61;100.00;99493.34;6245956;27;96687;-66
2023/09/08 03:40:18;;;;;;;;;30.00;28.00;;;;;18.61;100.00;99496.06;6259748;27;96595;-65
2023/09/08 03:43:23;;;;;;;;;26.00;25.00;;;;;18.67;100.00;99499.66;6250305;27;97276;-66
2023/09/08 03:46:26;;;;;;;;;32.40;27.00;;;;;18.67;100.00;99496.94;6263651;27;97054;-66
2023/09/08 03:49:31;;;;;;;;;28.00;26.00;;;;;18.64;100.00;99490.06;6242649;27;96579;-66
2023/09/08 03:52:34;;;;;;;;;29.80;27.80;;;;;18.60;100.00;99494.41;6260118;27;96927;-66
2023/09/08 03:55:37;;;;;;;;;30.50;29.00;;;;;18.59;100.00;99490.03;6261604;27;96431;-66
2023/09/08 03:58:41;;;;;;;;;29.20;26.60;;;;;18.55;100.00;99484.28;6259705;27;98019;-66
2023/09/08 04:01:45;;;;;;;;;30.80;28.80;;;;;18.56;100.00;99485.91;6245260;27;96681;-66
2023/09/08 04:04:48;;;;;;;;;32.50;29.50;;;;;18.56;100.00;99485.09;6242981;27;97394;-65
2023/09/08 04:07:52;;;;;;;;;33.50;30.00;;;;;18.52;100.00;99484.72;6261628;27;96111;-65
2023/09/08 04:10:55;;;;;;;;;30.00;28.00;;;;;18.53;100.00;99491.03;6242871;27;98476;-66
2023/09/08 04:14:00;;;;;;;;;31.00;27.60;;;;;18.58;100.00;99493.84;6248917;27;98793;-65
2023/09/08 04:17:03;;;;;;;;;33.00;30.00;;;;;18.59;100.00;99488.13;6226495;27;98067;-66
2023/09/08 04:20:09;;;;;;;;;26.80;25.60;;;;;18.59;100.00;99490.03;6251656;27;96687;-66
2023/09/08 04:23:12;;;;;;;;;26.50;25.00;;;;;18.57;100.00;99492.19;6271161;27;96358;-65
2023/09/08 04:26:15;;;;;;;;;30.40;26.40;;;;;18.56;100.00;99490.56;6248254;27;96783;-66
2023/09/08 04:29:19;;;;;;;;;28.00;26.00;;;;;18.63;100.00;99493.06;6255614;27;99124;-66
2023/09/08 04:32:23;;;;;;;;;30.40;27.00;;;;;18.70;100.00;99496.41;6259041;27;97034;-66
2023/09/08 04:35:26;;;;;;;;;25.60;25.00;;;;;18.77;100.00;99494.28;6245178;27;96391;-66
2023/09/08 04:38:30;;;;;;;;;29.50;25.25;;;;;18.77;100.00;99497.81;6279689;27;96431;-66
2023/09/08 04:41:33;;;;;;;;;30.00;26.00;;;;;18.83;100.00;99490.50;6270791;27;96330;-66
2023/09/08 04:44:38;;;;;;;;;26.60;24.80;;;;;18.90;100.00;99502.06;6276358;27;96603;-66
2023/09/08 04:47:41;;;;;;;;;29.20;25.80;;;;;18.91;100.00;99493.56;6271394;27;96954;-66
2023/09/08 04:50:45;;;;;;;;;32.50;26.75;;;;;18.99;100.00;99497.75;6263290;27;96919;-66
2023/09/08 04:53:48;;;;;;;;;27.00;25.75;;;;;19.08;100.00;99492.63;6270564;27;96614;-66
2023/09/08 04:56:52;;;;;;;;;31.00;26.60;;;;;19.12;100.00;99491.81;6261168;27;96883;-66
2023/09/08 05:00:02;;;;;;;;;26.50;24.50;;;;;19.17;100.00;99491.84;6257137;27;96565;-66
2023/09/08 05:03:07;;;;;;;;;29.00;27.00;;;;;19.19;100.00;99495.16;6289064;27;96613;-66
2023/09/08 05:06:13;;;;;;;;;25.00;24.00;;;;;19.31;100.00;99489.47;6254230;27;96796;-66
2023/09/08 05:09:17;;;;;;;;;28.40;25.00;;;;;19.37;100.00;99493.91;6271735;27;96342;-66
2023/09/08 05:12:20;;;;;;;;;33.00;30.00;;;;;19.44;100.00;99491.81;6268745;27;96374;-65
2023/09/08 05:15:25;;;;;;;;;25.20;22.80;;;;;19.51;100.00;99492.38;6262767;27;96328;-66
2023/09/08 05:18:30;;;;;;;;;24.60;24.00;;;;;19.53;100.00;99495.69;6259432;27;96344;-66
2023/09/08 05:21:35;;;;;;;;;26.00;24.25;;;;;19.59;100.00;99497.38;6258937;27;96806;-66
2023/09/08 05:24:39;;;;;;;;;28.00;27.00;;;;;19.59;100.00;99496.53;6236449;27;99159;-66
2023/09/08 05:27:42;;;;;;;;;26.80;25.00;;;;;19.52;100.00;99494.03;6246408;27;96470;-66
2023/09/08 05:30:47;;;;;;;;;29.00;25.25;;;;;19.56;100.00;99507.97;6263172;27;96409;-66
2023/09/08 05:33:51;;;;;;;;;24.00;22.00;;;;;19.56;100.00;99500.59;6262162;27;96248;-66
2023/09/08 05:36:54;;;;;;;;;21.00;20.00;;;;;19.50;100.00;99498.94;6253099;27;97652;-66
2023/09/08 05:39:58;;;;;;;;;25.60;23.00;;;;;19.46;100.00;99506.03;6270605;27;96605;-66
2023/09/08 05:43:02;;;;;;;;;28.40;27.00;;;;;19.58;100.00;99509.38;6251215;27;96578;-66
2023/09/08 05:46:06;;;;;;;;;27.00;24.20;;;;;19.56;100.00;99507.97;6264218;27;97480;-66
2023/09/08 05:49:10;;;;;;;;;26.60;23.60;;;;;19.57;100.00;99512.38;6228375;27;97048;-66
2023/09/08 05:52:13;;;;;;;;;25.80;23.20;;;;;19.59;100.00;99507.47;6263110;27;97491;-66
2023/09/08 05:55:18;;;;;;;;;27.60;25.00;;;;;19.70;100.00;99520.91;6228218;27;96694;-66
2023/09/08 05:58:24;;;;;;;;;26.00;23.00;;;;;19.83;100.00;99519.63;6245426;27;96921;-66
2023/09/08 06:01:29;;;;;;;;;29.40;27.00;;;;;19.93;100.00;99521.59;6245198;27;97109;-66
2023/09/08 06:04:33;;;;;;;;;26.00;25.00;;;;;20.08;100.00;99511.53;6228523;27;96997;-66
2023/09/08 06:07:37;;;;;;;;;26.50;24.50;;;;;20.18;100.00;99508.81;6228363;27;96600;-66
2023/09/08 06:10:42;;;;;;;;;28.60;24.60;;;;;20.46;100.00;99513.03;6262242;27;96407;-66
2023/09/08 06:13:46;;;;;;;;;28.00;25.00;;;;;20.67;100.00;99508.41;6245059;27;96310;-66
2023/09/08 06:16:50;;;;;;;;;28.80;25.40;;;;;20.85;100.00;99507.88;6261621;27;96668;-66
2023/09/08 06:19:54;;;;;;;;;28.40;23.00;;;;;21.02;100.00;99513.06;6244095;27;96680;-66
2023/09/08 06:22:57;;;;;;;;;27.80;26.00;;;;;21.27;100.00;99515.00;6245343;27;96666;-66
2023/09/08 06:26:01;;;;;;;;;27.20;24.00;;;;;21.47;100.00;99514.97;6244915;27;96597;-66
2023/09/08 06:29:07;;;;;;;;;24.40;21.40;;;;;21.67;100.00;99520.41;6245212;27;96575;-66
2023/09/08 06:32:12;;;;;;;;;27.40;25.80;;;;;21.86;100.00;99523.38;6244494;27;97400;-66
2023/09/08 06:35:19;;;;;;;;;23.60;22.00;;;;;21.91;100.00;99521.41;6244502;27;97062;-66
2023/09/08 06:38:22;;;;;;;;;27.20;24.00;;;;;22.02;100.00;99523.06;6226151;27;96646;-66
2023/09/08 06:41:27;;;;;;;;;28.00;24.33;;;;;22.16;100.00;99523.28;6242634;27;97644;-66
2023/09/08 06:44:31;;;;;;;;;24.20;23.00;;;;;22.33;100.00;99522.94;6242037;27;96587;-66
2023/09/08 06:47:36;;;;;;;;;27.20;24.00;;;;;22.54;100.00;99529.94;6260266;27;96567;-66
2023/09/08 06:50:39;;;;;;;;;25.00;21.00;;;;;22.69;100.00;99531.75;6266939;27;97075;-66
2023/09/08 06:53:44;;;;;;;;;22.50;21.00;;;;;22.83;100.00;99528.09;6266540;27;96445;-66
2023/09/08 06:56:48;;;;;;;;;28.60;26.00;;;;;23.06;100.00;99525.75;6267956;27;97020;-66
2023/09/08 06:59:51;;;;;;;;;26.80;25.00;;;;;23.30;100.00;99532.13;6251484;27;97378;-66
2023/09/08 07:02:56;;;;;;;;;28.40;26.00;;;;;23.57;100.00;99543.44;6268969;27;96483;-66
2023/09/08 07:06:00;;;;;;;;;26.40;24.00;;;;;23.93;100.00;99530.09;6269588;27;98154;-66
2023/09/08 07:09:03;;;;;;;;;27.00;25.00;;;;;24.31;100.00;99535.72;6268808;27;96694;-66
2023/09/08 07:12:07;;;;;;;;;26.00;24.00;;;;;24.74;100.00;99537.28;6250204;27;96653;-67
2023/09/08 07:15:11;;;;;;;;;26.00;25.00;;;;;25.15;100.00;99536.69;6249713;27;96937;-66
2023/09/08 07:18:16;;;;;;;;;27.60;24.00;;;;;25.40;100.00;99539.00;6267003;27;97020;-66
2023/09/08 07:21:20;;;;;;;;;28.40;26.40;;;;;25.67;100.00;99539.06;6267195;27;96819;-66
2023/09/08 07:24:24;;;;;;;;;28.20;25.20;;;;;25.86;100.00;99545.34;6250082;27;96625;-67
2023/09/08 07:27:27;;;;;;;;;27.50;25.00;;;;;26.12;100.00;99536.53;6251623;27;96665;-67
2023/09/08 07:30:33;;;;;;;;;28.00;25.00;;;;;26.40;100.00;99537.34;6251771;27;96765;-67
2023/09/08 07:33:38;;;;;;;;;27.80;25.20;;;;;26.70;100.00;99539.41;6251397;27;96680;-67
2023/09/08 07:36:41;;;;;;;;;26.00;25.00;;;;;27.07;100.00;99541.06;6268933;27;96975;-67
2023/09/08 07:39:45;;;;;;;;;26.60;24.60;;;;;27.41;100.00;99544.06;6268279;27;98464;-66
2023/09/08 07:42:48;;;;;;;;;26.20;25.00;;;;;27.84;100.00;99544.31;6269006;27;97118;-67
2023/09/08 07:45:51;;;;;;;;;24.50;21.50;;;;;28.21;100.00;99554.09;6251520;27;96715;-67
2023/09/08 07:48:56;;;;;;;;;26.40;23.60;;;;;28.58;100.00;99551.91;6268884;27;96273;-67
2023/09/08 07:51:59;;;;;;;;;24.00;22.20;;;;;28.98;100.00;99541.50;6286609;27;97491;-67
2023/09/08 07:55:03;;;;;;;;;23.80;22.20;;;;;29.36;100.00;99545.25;6287702;27;97066;-67
2023/09/08 07:58:06;;;;;;;;;23.00;20.50;;;;;29.68;100.00;99549.38;6272909;27;96387;-67
2023/09/08 08:01:10;;;;;;;;;21.00;19.40;;;;;29.96;100.00;99549.78;6255276;27;98863;-67
2023/09/08 08:04:14;;;;;;;;;23.20;21.00;;;;;30.15;100.00;99538.28;6291013;27;97630;-67
2023/09/08 08:07:18;;;;;;;;;27.40;25.00;;;;;30.44;100.00;99539.09;6272843;27;97513;-67
2023/09/08 08:10:21;;;;;;;;;24.40;23.40;;;;;30.34;100.00;99542.25;6272309;27;96752;-67
2023/09/08 08:13:24;;;;;;;;;23.20;21.20;;;;;30.58;100.00;99538.03;6291019;27;97002;-67
2023/09/08 08:16:27;;;;;;;;;25.00;21.75;;;;;30.69;100.00;99530.91;6271942;27;96871;-67
2023/09/08 08:19:32;;;;;;;;;25.00;21.60;;;;;30.91;100.00;99538.91;6255168;27;96985;-67
2023/09/08 08:22:36;;;;;;;;;22.40;21.60;;;;;31.09;100.00;99523.69;6290676;27;96952;-67
2023/09/08 08:25:39;;;;;;;;;22.00;19.60;;;;;31.36;100.00;99525.06;6290555;27;96337;-67
2023/09/08 08:28:42;;;;;;;;;23.00;21.60;;;;;31.75;100.00;99526.47;6272367;27;97598;-67
2023/09/08 08:31:45;;;;;;;;;23.00;20.60;;;;;31.96;100.00;99527.16;6255081;27;99445;-67
2023/09/08 08:34:51;;;;;;;;;21.00;19.20;;;;;32.32;100.00;99525.56;6272616;27;96822;-67
2023/09/08 08:37:54;;;;;;;;;20.00;20.00;;;;;32.73;100.00;99518.88;6253544;27;96703;-67
2023/09/08 08:41:03;;;;;;;;;20.80;20.80;;;;;33.00;100.00;99520.88;6269473;27;97310;-67
2023/09/08 08:44:07;;;;;;;;;20.67;17.67;;;;;33.07;100.00;99518.28;6288327;27;96941;-67
2023/09/08 08:47:12;;;;;;;;;17.80;17.00;;;;;33.30;100.00;99516.56;6288105;27;96941;-67
2023/09/08 08:50:18;;;;;;;;;16.20;14.60;;;;;33.82;100.00;99515.56;6270719;27;97056;-67
2023/09/08 08:53:22;;;;;;;;;18.40;16.80;;;;;34.26;100.00;99511.47;6288142;27;96567;-67
2023/09/08 08:56:25;;;;;;;;;18.40;18.40;;;;;34.23;100.00;99508.59;6269885;27;96716;-67
2023/09/08 08:59:29;;;;;;;;;21.00;19.00;;;;;34.35;100.00;99512.13;6288646;27;96566;-67
2023/09/08 09:02:33;;;;;;;;;14.40;14.40;;;;;34.66;100.00;99502.78;6289307;27;96633;-67
2023/09/08 09:05:38;;;;;;;;;15.60;15.00;;;;;34.91;100.00;99506.16;6290025;27;96613;-67
2023/09/08 09:08:44;;;;;;;;;15.50;14.00;;;;;35.22;100.00;99505.22;6270977;27;96568;-68
2023/09/08 09:11:48;;;;;;;;;17.25;16.00;;;;;35.48;100.00;99502.47;6271244;27;98724;-68
2023/09/08 09:14:54;;;;;;;;;15.40;14.40;;;;;35.89;98.91;99505.63;6288932;27;96953;-68
2023/09/08 09:18:08;;;;;;;;;18.60;17.00;;;;;36.05;96.25;99498.69;6288521;27;96987;-68
2023/09/08 09:21:13;;;;;;;;;15.00;14.40;;;;;36.13;94.25;99494.03;6269208;27;97636;-68
2023/09/08 09:24:16;;;;;;;;;16.50;15.50;;;;;36.31;94.58;99494.31;6288196;27;96497;-68
2023/09/08 09:27:23;;;;;;;;;17.00;16.00;;;;;36.37;91.15;99495.56;6289156;27;96520;-67
2023/09/08 09:30:27;;;;;;;;;17.00;15.40;;;;;36.25;91.31;99484.59;6288682;27;97593;-68
2023/09/08 09:33:31;;;;;;;;;15.00;14.20;;;;;36.34;92.56;99488.72;6288694;27;96419;-68
2023/09/08 09:36:40;;;;;;;;;14.00;13.40;;;;;36.23;88.03;99481.34;6288957;27;96533;-68
2023/09/08 09:39:49;;;;;;;;;13.00;12.00;;;;;36.54;89.94;99480.19;6289928;27;96420;-68
2023/09/08 09:42:52;;;;;;;;;16.00;14.00;;;;;36.86;87.11;99475.78;6283396;27;96427;-67
2023/09/08 09:45:55;;;;;;;;;15.60;14.60;;;;;36.90;84.53;99473.84;6253414;27;99380;-68
2023/09/08 09:48:59;;;;;;;;;14.40;14.00;;;;;36.86;83.31;99475.78;6289335;27;96658;-67
2023/09/08 09:52:04;;;;;;;;;14.00;13.00;;;;;36.99;86.23;99471.56;6270088;27;97490;-68
2023/09/08 09:55:09;;;;;;;;;14.80;13.20;;;;;37.23;83.71;99459.81;6270044;27;97133;-68
2023/09/08 09:58:14;;;;;;;;;12.00;11.80;;;;;37.56;81.64;99458.13;6270493;27;96625;-67
2023/09/08 10:01:18;;;;;;;;;11.60;11.00;;;;;37.83;81.23;99459.53;6269561;27;99475;-67
2023/09/08 10:04:22;;;;;;;;;12.60;12.00;;;;;38.18;79.65;99459.03;6288819;27;96470;-67
2023/09/08 10:07:27;;;;;;;;;11.00;10.00;;;;;38.17;78.58;99456.63;6288500;27;96968;-67
2023/09/08 10:10:34;;;;;;;;;13.00;11.40;;;;;37.88;77.32;99455.56;6289422;27;97427;-67
2023/09/08 10:13:41;;;;;;;;;13.60;12.60;;;;;38.03;81.54;99457.31;6288694;27;96444;-67
2023/09/08 10:16:49;;;;;;;;;11.75;11.00;;;;;38.01;73.52;99460.53;6288748;27;96511;-67
2023/09/08 10:19:54;;;;;;;;;13.25;12.25;;;;;37.55;77.50;99457.31;6269842;27;96860;-67
2023/09/08 10:23:07;;;;;;;;;12.00;11.00;;;;;37.36;75.00;99454.69;6288733;27;96820;-67
2023/09/08 10:26:12;;;;;;;;;12.40;11.40;;;;;37.54;79.56;99452.88;6269691;27;96824;-67
2023/09/08 10:29:15;;;;;;;;;11.00;10.00;;;;;37.82;78.34;99448.69;6288250;27;96964;-67
2023/09/08 10:32:20;;;;;;;;;11.00;11.00;;;;;37.92;76.25;99448.78;6288274;27;96549;-67
2023/09/08 10:35:24;;;;;;;;;14.00;12.80;;;;;38.07;75.54;99452.53;6269943;27;97213;-67
2023/09/08 10:38:32;;;;;;;;;11.00;11.00;;;;;37.92;76.64;99447.97;6286763;27;96423;-67
2023/09/08 10:41:36;;;;;;;;;12.00;11.00;;;;;38.12;76.05;99441.69;6287046;27;98024;-66
2023/09/08 10:44:39;;;;;;;;;11.80;11.20;;;;;38.31;73.35;99440.63;6267605;27;96903;-66
2023/09/08 10:47:57;;;;;;;;;11.00;9.80;;;;;38.27;71.66;99439.75;6286374;27;97442;-67
2023/09/08 10:51:01;;;;;;;;;13.00;12.60;;;;;38.19;68.85;99440.94;6286116;27;96559;-66
2023/09/08 10:54:06;;;;;;;;;13.50;12.00;;;;;37.99;77.16;99431.97;6286489;27;96567;-67
2023/09/08 10:57:15;;;;;;;;;13.50;13.00;;;;;38.00;76.31;99430.75;6286398;27;96808;-67
2023/09/08 11:00:20;;;;;;;;;14.00;12.00;;;;;38.36;76.46;99422.53;6269850;27;97441;-67
2023/09/08 11:03:28;;;;;;;;;14.75;13.75;;;;;38.66;76.60;99434.34;6281848;27;96689;-66
2023/09/08 11:06:32;;;;;;;;;12.40;12.20;;;;;38.32;70.39;99427.31;6248849;27;97777;-66
2023/09/08 11:09:38;;;;;;;;;14.80;14.00;;;;;38.02;77.50;99419.13;6274242;27;96933;-66
2023/09/08 11:12:41;;;;;;;;;17.25;15.25;;;;;37.95;73.80;99414.22;6274247;27;96603;-67
2023/09/08 11:15:44;;;;;;;;;10.25;10.00;;;;;38.16;73.14;99419.19;6274656;27;97359;-66
2023/09/08 11:18:47;;;;;;;;;13.00;12.00;;;;;38.06;72.73;99417.13;6281134;27;96688;-66
2023/09/08 11:21:51;;;;;;;;;13.00;12.00;;;;;38.21;73.46;99413.19;6272989;27;96815;-66
2023/09/08 11:24:57;;;;;;;;;14.00;12.00;;;;;38.44;73.03;99413.75;6257179;27;97136;-67
2023/09/08 11:28:01;;;;;;;;;13.33;11.00;;;;;38.69;73.36;99411.03;6277706;27;97399;-67
2023/09/08 11:31:05;;;;;;;;;11.50;11.50;;;;;38.68;72.80;99420.69;6268506;27;96802;-67
2023/09/08 11:34:08;;;;;;;;;12.00;11.00;;;;;38.86;74.58;99412.25;6279396;27;96974;-66
2023/09/08 11:37:13;;;;;;;;;11.25;10.75;;;;;39.18;71.72;99415.19;6285774;27;96413;-68
2023/09/08 11:40:19;;;;;;;;;12.00;10.00;;;;;39.03;70.82;99414.38;6286965;27;96494;-67
2023/09/08 11:43:23;;;;;;;;;12.60;11.00;;;;;38.95;70.69;99409.94;6268633;27;98355;-67
2023/09/08 11:46:28;;;;;;;;;11.00;10.00;;;;;38.73;67.35;99406.19;6262385;27;97639;-67
2023/09/08 11:49:35;;;;;;;;;12.00;11.00;;;;;38.20;69.68;99408.75;6272420;27;96364;-67
2023/09/08 11:52:40;;;;;;;;;10.20;9.80;;;;;37.45;72.35;99407.34;6266233;27;97511;-68
2023/09/08 11:55:45;;;;;;;;;12.80;11.80;;;;;37.76;75.18;99400.41;6285565;27;96734;-68
2023/09/08 11:58:49;;;;;;;;;11.00;11.00;;;;;38.17;71.62;99399.06;6271758;27;96626;-67
2023/09/08 12:01:52;;;;;;;;;10.25;9.25;;;;;38.49;71.62;99398.47;6284685;27;96424;-68
2023/09/08 12:04:55;;;;;;;;;14.00;11.00;;;;;38.58;68.40;99398.91;6257735;27;97786;-67
2023/09/08 12:07:59;;;;;;;;;11.25;10.50;;;;;38.56;69.43;99396.47;6258597;27;98668;-68
2023/09/08 12:11:03;;;;;;;;;9.00;9.00;;;;;38.46;67.07;99390.81;6266536;27;97096;-68
2023/09/08 12:14:08;;;;;;;;;10.00;9.40;;;;;38.32;65.03;99387.88;6267500;27;98537;-68
2023/09/08 12:17:15;;;;;;;;;9.80;9.40;;;;;38.00;64.95;99388.53;6285890;27;96590;-68
2023/09/08 12:20:19;;;;;;;;;11.00;10.00;;;;;37.66;68.94;99382.25;6285961;27;96622;-67
2023/09/08 12:23:23;;;;;;;;;11.00;10.00;;;;;37.02;70.21;99374.38;6265469;27;96825;-67
2023/09/08 12:26:29;;;;;;;;;9.80;9.00;;;;;36.78;73.02;99376.56;6267357;27;97137;-68
2023/09/08 12:29:33;;;;;;;;;10.00;9.00;;;;;36.82;72.76;99376.59;6268091;27;97260;-68
2023/09/08 12:32:37;;;;;;;;;11.00;10.00;;;;;36.61;76.88;99379.16;6284827;27;97594;-68
2023/09/08 12:35:40;;;;;;;;;11.00;10.00;;;;;36.65;75.35;99377.22;6273491;27;97845;-68
2023/09/08 12:38:48;;;;;;;;;11.00;10.00;;;;;36.85;76.59;99361.75;6245271;27;97095;-68
2023/09/08 12:41:52;;;;;;;;;8.50;8.50;;;;;36.93;71.87;99360.66;6246013;27;96817;-68
2023/09/08 12:44:58;;;;;;;;;9.00;9.00;;;;;36.85;73.64;99348.50;6262652;27;97561;-67
2023/09/08 12:48:03;;;;;;;;;11.00;11.00;;;;;36.70;75.08;99366.41;6261233;27;98259;-67
2023/09/08 12:51:06;;;;;;;;;10.00;9.40;;;;;36.71;75.72;99348.38;6279821;27;96777;-67
2023/09/08 12:54:09;;;;;;;;;10.00;9.00;;;;;36.77;77.54;99349.66;6269676;27;96743;-67
2023/09/08 12:57:14;;;;;;;;;9.00;9.00;;;;;36.91;76.30;99354.59;6289213;27;96472;-66
2023/09/08 13:00:17;;;;;;;;;10.00;10.00;;;;;36.95;71.41;99349.81;6232320;27;98424;-67
2023/09/08 13:03:21;;;;;;;;;9.40;9.40;;;;;36.97;75.33;99338.19;6270321;27;96543;-67
2023/09/08 13:06:24;;;;;;;;;10.40;9.40;;;;;36.90;75.70;99333.31;6283734;27;97058;-67
2023/09/08 13:09:27;;;;;;;;;10.00;10.00;;;;;36.63;74.94;99335.44;6285087;27;97334;-67
2023/09/08 13:12:33;;;;;;;;;11.40;11.00;;;;;36.50;74.99;99336.88;6277325;27;96735;-67
2023/09/08 13:15:36;;;;;;;;;10.00;9.00;;;;;36.32;74.35;99336.66;6272997;27;98048;-67
2023/09/08 13:18:41;;;;;;;;;9.00;9.00;;;;;36.43;76.61;99333.97;6282025;27;97407;-67
2023/09/08 13:21:44;;;;;;;;;11.60;9.60;;;;;36.50;77.74;99333.28;6261804;27;96692;-68
2023/09/08 13:24:47;;;;;;;;;9.60;9.00;;;;;36.57;74.31;99324.91;6266896;27;97176;-67
2023/09/08 13:27:52;;;;;;;;;12.00;10.00;;;;;36.24;76.92;99329.34;6271312;27;96491;-67
2023/09/08 13:30:58;;;;;;;;;15.50;14.50;;;;;35.92;80.62;99328.88;6288432;27;96612;-67
2023/09/08 13:34:02;;;;;;;;;10.00;9.00;;;;;35.04;78.78;99328.25;6246597;27;96419;-67
2023/09/08 13:37:05;;;;;;;;;11.00;11.00;;;;;34.81;82.08;99327.44;6275180;27;96551;-67
2023/09/08 13:40:09;;;;;;;;;11.60;10.40;;;;;34.53;82.26;99318.50;6275272;27;97526;-67
2023/09/08 13:43:14;;;;;;;;;9.20;9.20;;;;;34.57;83.82;99322.16;6276887;27;96300;-67
2023/09/08 13:46:18;;;;;;;;;9.00;8.00;;;;;34.72;84.99;99319.28;6275973;27;97146;-67
2023/09/08 13:49:22;;;;;;;;;9.00;9.00;;;;;34.86;82.17;99317.94;6278942;27;96877;-67
2023/09/08 13:52:26;;;;;;;;;9.00;8.25;;;;;34.99;83.12;99316.56;6269255;27;96549;-67
2023/09/08 13:55:33;;;;;;;;;12.00;11.20;;;;;35.18;81.39;99322.13;6258713;27;97170;-67
2023/09/08 13:58:45;;;;;;;;;9.25;9.00;;;;;35.30;82.54;99315.50;6255307;27;98069;-67
2023/09/08 14:01:53;;;;;;;;;12.00;10.00;;;;;35.41;83.17;99310.88;6273608;27;96720;-67
2023/09/08 14:05:16;;;;;;;;;10.20;9.00;;;;;35.10;80.56;99311.94;6266414;27;96565;-68